Weather reports worldwide

Advertisment
Bourg-St-Maurice, France (7497): temperature & dewpoint: 18.06.2018 15:00:00 - 24.06.2018 15:00:00 (CEST)Bourg-St-Maurice, France (7497): temperature 5cm: 18.06.2018 15:00:00 - 24.06.2018 15:00:00 (CEST)Bourg-St-Maurice, France (7497): temperature -20cm & temperature -100cm: 18.06.2018 15:00:00 - 24.06.2018 15:00:00 (CEST)Bourg-St-Maurice, France (7497): wind speed & gusts: 18.06.2018 15:00:00 - 24.06.2018 15:00:00 (CEST)Bourg-St-Maurice, France (7497): wind direction: 18.06.2018 15:00:00 - 24.06.2018 15:00:00 (CEST)Bourg-St-Maurice, France (7497): precipitation: 18.06.2018 15:00:00 - 24.06.2018 15:00:00 (CEST)
Date & Time tt [°C] td [°C] tt 5cm [°C] tt -20cm [°C] tt -100cm [°C] ff [km/h] ff [kn] fx [km/h] fx [kn] dd rr [mm]
24.06.2018 15:00:00 24,4 4,7 24,1 23,4 19,3 9 5 20 11 S 0,0
24.06.2018 14:00:00 21,6 8,1 23,6 23,3 19,3 3 2 14 8 W 0,0
24.06.2018 13:00:00 20,1 8,1 22,4 23,2 19,3 7 4 15 8 S 0,0
24.06.2018 12:00:00 18,1 7,5 19,1 23,2 19,3 8 4 22 12 S 0,0
24.06.2018 11:00:00 19,0 6,8 20,5 23,2 19,3 7 4 20 11 SSW 0,0
24.06.2018 10:00:00 18,0 6,2 17,4 23,2 19,3 3 2 10 5 E 0,0
24.06.2018 09:00:00 15,2 6,5 13,7 23,4 19,3 0 0 5 3 N 0,0
24.06.2018 08:00:00 12,5 7,2 12,1 23,6 19,3 0 0 4 2 N 0,0
24.06.2018 07:00:00 11,5 6,0 9,7 23,8 19,2 0 0 7 4 N 0,0
24.06.2018 06:00:00 11,2 6,1 9,5 24,1 19,3 2 1 6 3 NW 0,0
24.06.2018 05:00:00 11,6 5,9 9,5 24,3 19,3 0 0 6 3 N 0,0
24.06.2018 04:00:00 12,4 5,8 10,8 24,5 19,2 5 3 9 5 W 0,0
24.06.2018 03:00:00 13,0 5,9 11,7 24,7 19,2 3 2 6 3 NW 0,0
24.06.2018 02:00:00 13,5 5,6 11,9 25,0 19,2 3 1 5 3 N 0,0
24.06.2018 01:00:00 14,5 5,8 12,7 25,2 19,2 4 2 10 5 WNW 0,0
24.06.2018 00:00:00 15,4 5,0 13,7 25,3 19,2 6 4 11 6 NW 0,0
23.06.2018 23:00:00 15,9 5,8 14,0 25,5 19,2 4 2 9 5 W 0,0
23.06.2018 22:00:00 18,2 5,7 16,2 25,6 19,2 4 2 13 7 W 0,0
23.06.2018 21:00:00 20,8 5,2 19,2 25,7 19,2 5 3 26 14 SE 0,0
23.06.2018 20:00:00 22,1 6,3 21,3 25,6 19,2 4 2 31 17 S 0,0
23.06.2018 19:00:00 23,6 5,5 25,1 25,4 19,2 8 4 36 20 W 0,0
23.06.2018 18:00:00 25,2 6,4 26,3 25,2 19,2 9 5 30 16 W 0,0
23.06.2018 17:00:00 25,0 6,7 25,0 24,9 19,1 11 6 30 16 S 0,0
23.06.2018 16:00:00 25,5 6,2 25,9 24,5 19,1 13 7 40 22 SSW 0,0
23.06.2018 15:00:00 25,5 6,2 27,7 24,1 19,1 11 6 31 17 S 0,0
23.06.2018 14:00:00 24,5 4,8 29,7 23,7 19,1 11 6 29 16 S 0,0
23.06.2018 13:00:00 23,1 6,4 28,8 23,3 19,1 12 6 29 15 S 0,0
23.06.2018 12:00:00 21,4 6,5 27,4 23,2 19,1 8 5 20 11 S 0,0
23.06.2018 11:00:00 19,4 7,2 25,1 23,2 19,1 5 3 12 7 S 0,0
23.06.2018 10:00:00 17,3 6,2 23,1 23,3 19,1 5 3 10 5 S 0,0
23.06.2018 09:00:00 15,2 6,7 17,8 23,4 19,1 3 2 8 4 ESE 0,0
23.06.2018 08:00:00 12,9 6,2 8,7 23,7 19,1 0 0 5 3 N 0,0
23.06.2018 07:00:00 9,4 5,8 7,8 24,0 19,1 0 0 6 3 N 0,0
23.06.2018 06:00:00 9,6 5,0 7,4 24,3 19,1 4 2 8 4 NW 0,0
23.06.2018 05:00:00 9,9 5,3 8,1 24,5 19,0 3 2 7 4 WNW 0,0
23.06.2018 04:00:00 10,8 5,5 9,1 24,8 19,0 4 2 11 6 WNW 0,0
23.06.2018 03:00:00 11,9 5,1 10,4 25,0 19,0 5 3 10 5 NW 0,0
23.06.2018 02:00:00 12,9 5,3 11,4 25,3 19,0 6 3 9 5 WNW 0,0
23.06.2018 01:00:00 13,9 5,5 12,4 25,5 19,0 4 2 8 4 WNW 0,0
23.06.2018 00:00:00 15,0 5,8 13,7 25,7 19,0 5 3 10 5 WNW 0,0
22.06.2018 23:00:00 15,7 6,4 13,9 26,0 19,0 4 2 9 5 W 0,0
22.06.2018 22:00:00 17,4 6,6 15,1 26,1 19,0 3 2 10 6 WNW 0,0
22.06.2018 21:00:00 20,3 6,6 18,4 26,2 19,0 5 3 22 12 SE 0,0
22.06.2018 20:00:00 21,6 5,5 20,2 26,2 18,9 5 3 33 18 W 0,0
22.06.2018 19:00:00 23,2 6,5 23,9 26,1 18,9 16 9 41 22 NW 0,0
22.06.2018 18:00:00 24,1 5,9 25,7 25,9 18,9 19 10 47 25 NW 0,0
22.06.2018 17:00:00 26,1 6,7 26,5 25,6 18,9 8 4 26 14 NNW 0,0
22.06.2018 16:00:00 26,7 9,1 27,5 25,2 18,9 10 5 33 18 SW 0,0
22.06.2018 15:00:00 26,4 10,1 31,0 24,8 18,9 11 6 29 16 S 0,0
22.06.2018 14:00:00 25,3 9,6 30,7 24,5 18,9 13 7 31 17 S 0,0
22.06.2018 13:00:00 24,7 9,0 30,8 24,1 18,8 10 6 24 13 S 0,0
22.06.2018 12:00:00 23,8 10,5 29,0 24,0 18,8 8 4 25 14 S 0,0
22.06.2018 11:00:00 21,6 12,2 27,2 23,9 18,8 9 5 25 14 S 0,0
22.06.2018 10:00:00 20,5 13,5 25,0 24,0 18,8 6 3 14 7 S 0,0
22.06.2018 09:00:00 18,2 12,4 16,2 24,2 18,8 4 2 12 6 SE 0,0
22.06.2018 08:00:00 15,6 11,4 13,6 24,4 18,8 4 2 6 4 ENE 0,0
22.06.2018 07:00:00 14,3 10,9 12,4 24,6 18,8 2 1 8 5 WSW 0,0
22.06.2018 06:00:00 14,5 10,5 13,0 24,8 18,7 0 0 5 3 N 0,0
22.06.2018 05:00:00 14,9 10,3 13,2 25,1 18,7 3 1 10 5 WNW 0,0
22.06.2018 04:00:00 15,4 10,4 13,7 25,3 18,8 4 2 10 5 WNW 0,0
22.06.2018 03:00:00 16,6 10,2 14,6 25,5 18,7 2 1 10 5 WNW 0,0
22.06.2018 02:00:00 16,9 10,7 15,5 25,7 18,7 5 3 10 6 WNW 0,0
22.06.2018 01:00:00 18,1 11,2 16,5 25,9 18,7 4 2 11 6 W 0,0
22.06.2018 00:00:00 19,3 11,6 17,6 26,1 18,7 4 2 9 5 W 0,0
21.06.2018 23:00:00 20,7 11,1 19,1 26,2 18,7 4 2 14 8 WNW 0,0
21.06.2018 22:00:00 22,1 10,9 20,3 26,3 18,7 7 4 13 7 W 0,0
21.06.2018 21:00:00 24,5 10,7 22,9 26,3 18,7 6 3 23 13 SE 0,0
21.06.2018 20:00:00 26,1 10,7 25,2 26,3 18,6 11 6 23 12 E 0,0
21.06.2018 19:00:00 27,3 8,2 27,1 26,2 18,7 6 3 22 12 SSW 0,0
21.06.2018 18:00:00 29,8 5,8 30,2 25,9 18,6 6 3 21 11 WSW 0,0
21.06.2018 17:00:00 30,2 7,4 30,3 25,5 18,6 7 4 25 13 W 0,0
21.06.2018 16:00:00 30,5 9,9 31,1 25,1 18,6 12 6 43 23 S 0,0
21.06.2018 15:00:00 30,2 9,7 35,1 24,7 18,6 14 8 37 20 S 0,0
21.06.2018 14:00:00 29,8 9,8 30,4 24,3 18,6 14 8 29 16 S 0,0
21.06.2018 13:00:00 28,9 10,1 34,1 23,9 18,6 11 6 23 13 SSE 0,0
21.06.2018 12:00:00 27,8 11,8 32,9 23,6 18,5 6 3 17 9 SSW 0,0
21.06.2018 11:00:00 25,2 11,7 30,3 23,6 18,5 4 2 12 6 S 0,0
21.06.2018 10:00:00 23,1 11,5 28,4 23,6 18,5 5 3 10 6 SSE 0,0
21.06.2018 09:00:00 21,5 11,2 23,6 23,7 18,5 4 2 8 4 NE 0,0
21.06.2018 08:00:00 18,5 10,6 14,5 23,9 18,5 3 2 5 3 NE 0,0
21.06.2018 07:00:00 15,2 11,0 13,1 24,1 18,5 3 2 4 2 N 0,0
21.06.2018 06:00:00 15,4 10,6 12,8 24,3 18,5 2 1 6 3 NE 0,0
21.06.2018 05:00:00 15,7 10,7 13,3 24,6 18,5 0 0 5 3 N 0,0
21.06.2018 04:00:00 16,5 10,6 14,7 24,7 18,4 3 2 5 3 W 0,0
21.06.2018 03:00:00 18,0 11,1 15,2 24,9 18,4 2 1 8 4 NNE 0,0
21.06.2018 02:00:00 18,6 11,4 16,5 25,1 18,4 3 1 19 11 WSW 0,0
21.06.2018 01:00:00 20,5 11,7 19,0 25,2 18,4 5 3 16 9 NW 0,0
21.06.2018 00:00:00 20,9 11,5 18,5 25,4 18,4 3 1 14 7 WNW 0,0
20.06.2018 23:00:00 21,7 11,1 20,4 25,5 18,4 3 2 16 9 W 0,0
20.06.2018 22:00:00 22,9 10,7 20,8 25,6 18,4 8 5 16 9 WNW 0,0
20.06.2018 21:00:00 25,2 10,6 23,2 25,6 18,4 4 2 18 10 SSW 0,0
20.06.2018 20:00:00 27,3 10,9 27,1 25,6 18,4 3 2 23 12 W 0,0
20.06.2018 19:00:00 28,9 10,1 29,7 25,4 18,3 6 4 17 9 WSW 0,0
20.06.2018 18:00:00 29,1 9,2 29,6 25,1 18,3 8 5 27 15 NW 0,0
20.06.2018 17:00:00 30,6 11,0 29,2 24,9 18,3 6 3 19 10 SE 0,0
20.06.2018 16:00:00 29,3 9,4 29,2 24,5 18,3 4 2 24 13 N 0,0
20.06.2018 15:00:00 29,5 9,1 31,1 24,1 18,3 6 3 27 15 N 0,0
20.06.2018 14:00:00 29,9 8,9 29,0 23,7 18,3 15 8 29 16 NNW 0,0
20.06.2018 13:00:00 29,9 9,9 36,1 23,3 18,3 10 6 20 11 SSE 0,0
20.06.2018 12:00:00 27,9 11,9 33,6 23,0 18,2 6 4 14 8 S 0,0
20.06.2018 11:00:00 25,0 12,9 30,7 22,9 18,2 4 2 9 5 SSE 0,0
20.06.2018 10:00:00 22,2 12,2 26,3 22,9 18,2 2 1 6 4 SSE 0,0
20.06.2018 09:00:00 19,8 11,3 22,2 23,0 18,2 3 1 8 4 ESE 0,0
20.06.2018 08:00:00 17,1 12,0 13,4 23,2 18,2 5 3 9 5 N 0,0
20.06.2018 07:00:00 13,9 11,6 12,2 23,4 18,2 3 2 6 4 SSW 0,0
20.06.2018 06:00:00 13,8 11,3 11,8 23,7 18,2 2 1 5 3 NNE 0,0
20.06.2018 05:00:00 14,5 11,6 12,3 23,9 18,2 0 0 6 3 N 0,0
20.06.2018 04:00:00 15,0 11,8 13,0 24,1 18,1 3 2 7 4 NW 0,0
20.06.2018 03:00:00 15,8 12,0 13,7 24,3 18,2 3 2 6 3 NNW 0,0
20.06.2018 02:00:00 16,3 12,3 14,1 24,5 18,1 2 1 8 4 NNW 0,0
20.06.2018 01:00:00 17,5 12,2 15,4 24,7 18,2 3 1 8 4 NNW 0,0
20.06.2018 00:00:00 18,7 12,4 16,8 24,9 18,1 3 1 10 6 NNW 0,0
19.06.2018 23:00:00 19,6 12,8 18,0 25,0 18,1 5 3 10 6 WNW 0,0
19.06.2018 22:00:00 20,3 13,3 18,8 25,1 18,1 5 3 9 5 W 0,0
19.06.2018 21:00:00 22,1 13,4 20,7 25,2 18,1 4 2 11 6 W 0,0
19.06.2018 20:00:00 24,3 15,0 22,9 25,1 18,1 5 3 18 10 W 0,0
19.06.2018 19:00:00 26,7 14,1 27,1 24,9 18,1 8 4 26 14 S 0,0
19.06.2018 18:00:00 27,7 14,3 28,3 24,7 18,1 8 5 27 15 S 0,0
19.06.2018 17:00:00 28,5 13,6 28,2 24,3 18,1 10 5 26 14 S 0,0
19.06.2018 16:00:00 28,3 11,8 29,1 23,9 18,0 12 6 28 15 S 0,0
19.06.2018 15:00:00 28,3 11,8 32,8 23,4 18,0 10 5 28 15 S 0,0
19.06.2018 14:00:00 27,5 9,3 33,2 22,9 18,1 10 5 20 11 S 0,0
19.06.2018 13:00:00 25,8 10,0 31,0 22,5 18,0 7 4 16 9 SW 0,0
19.06.2018 12:00:00 24,0 11,0 30,3 22,2 18,0 8 4 17 9 S 0,0
19.06.2018 11:00:00 21,9 11,6 28,1 22,2 18,0 5 3 14 7 S 0,0
19.06.2018 10:00:00 20,0 11,2 24,9 22,2 18,0 3 2 9 5 SSE 0,0
19.06.2018 09:00:00 17,8 10,9 20,7 22,3 18,0 4 2 7 4 S 0,0
19.06.2018 08:00:00 15,7 10,0 12,3 22,5 18,0 2 1 7 4 E 0,0
19.06.2018 07:00:00 12,5 9,9 10,5 22,7 18,0 3 1 6 3 NNW 0,0
19.06.2018 06:00:00 12,2 9,6 10,5 22,9 18,0 3 1 6 4 NW 0,0
19.06.2018 05:00:00 12,8 9,8 11,1 23,2 17,9 2 1 5 3 W 0,0
19.06.2018 04:00:00 13,8 9,8 11,7 23,4 17,9 0 0 4 2 N 0,0
19.06.2018 03:00:00 14,4 10,2 12,9 23,6 17,9 0 0 5 3 N 0,0
19.06.2018 02:00:00 14,9 10,3 12,7 23,8 17,9 2 1 5 3 NNW 0,0
19.06.2018 01:00:00 15,5 10,0 13,5 24,0 17,9 0 0 14 8 N 0,0
19.06.2018 00:00:00 16,5 10,3 15,1 24,2 17,9 5 3 13 7 WNW 0,0
18.06.2018 23:00:00 17,4 10,5 16,2 24,4 17,9 6 3 10 5 WNW 0,0
18.06.2018 22:00:00 18,6 10,7 16,8 24,6 17,9 3 2 10 5 W 0,0
18.06.2018 21:00:00 21,3 11,0 19,1 24,6 17,9 4 2 21 11 ESE 0,0
18.06.2018 20:00:00 23,2 10,3 21,7 24,6 17,9 11 6 24 13 ESE 0,0
18.06.2018 19:00:00 25,5 10,5 26,1 24,4 17,9 6 3 27 15 S 0,0
18.06.2018 18:00:00 25,9 11,6 26,4 24,1 17,9 6 4 25 13 SSW 0,0
18.06.2018 17:00:00 26,3 11,2 25,8 23,8 17,9 9 5 26 14 S 0,0
18.06.2018 16:00:00 26,9 12,2 28,3 23,4 17,9 8 5 26 14 S 0,0
18.06.2018 15:00:00 26,6 11,5 31,7 22,9 17,8 9 5 26 14 S 0,0

tt = temperature
td = dewpoint
tt 5cm = temperature 5cm
tt -20cm = temperature -20cm
tt -100cm = temperature -100cm
ff = wind speed
fx = gusts
dd = wind direction
rr = precipitation

Next stations